sensor_id;sensor_type;location;lat;lon;timestamp;temperature;humidity
46319;DHT22;32042;50.916;2.926;2023-11-21T00:01:02;9.40;99.90
46319;DHT22;32042;50.916;2.926;2023-11-21T00:03:30;9.50;99.90
46319;DHT22;32042;50.916;2.926;2023-11-21T00:05:56;9.50;99.90
46319;DHT22;32042;50.916;2.926;2023-11-21T00:08:21;9.50;99.90
46319;DHT22;32042;50.916;2.926;2023-11-21T00:10:47;9.40;99.90
46319;DHT22;32042;50.916;2.926;2023-11-21T00:13:14;9.40;99.90
46319;DHT22;32042;50.916;2.926;2023-11-21T00:15:40;9.40;99.90
46319;DHT22;32042;50.916;2.926;2023-11-21T00:18:06;9.40;99.90
46319;DHT22;32042;50.916;2.926;2023-11-21T00:20:32;9.40;99.90
46319;DHT22;32042;50.916;2.926;2023-11-21T00:22:58;9.50;99.90
46319;DHT22;32042;50.916;2.926;2023-11-21T00:25:25;9.50;99.90
46319;DHT22;32042;50.916;2.926;2023-11-21T00:27:51;9.50;99.90
46319;DHT22;32042;50.916;2.926;2023-11-21T00:30:17;9.50;99.90
46319;DHT22;32042;50.916;2.926;2023-11-21T00:32:42;9.50;99.90
46319;DHT22;32042;50.916;2.926;2023-11-21T00:35:09;9.60;99.90
46319;DHT22;32042;50.916;2.926;2023-11-21T00:37:34;9.60;99.90
46319;DHT22;32042;50.916;2.926;2023-11-21T00:40:00;9.60;99.90
46319;DHT22;32042;50.916;2.926;2023-11-21T00:42:30;9.50;99.90
46319;DHT22;32042;50.916;2.926;2023-11-21T00:44:57;9.60;99.90
46319;DHT22;32042;50.916;2.926;2023-11-21T00:47:23;9.50;99.90
46319;DHT22;32042;50.916;2.926;2023-11-21T00:49:49;9.50;99.90
46319;DHT22;32042;50.916;2.926;2023-11-21T00:52:14;9.50;99.90
46319;DHT22;32042;50.916;2.926;2023-11-21T00:54:41;9.60;99.90
46319;DHT22;32042;50.916;2.926;2023-11-21T00:57:07;9.60;99.90
46319;DHT22;32042;50.916;2.926;2023-11-21T00:59:34;9.60;99.90
46319;DHT22;32042;50.916;2.926;2023-11-21T01:02:00;9.70;99.90
46319;DHT22;32042;50.916;2.926;2023-11-21T01:04:27;9.70;99.90
46319;DHT22;32042;50.916;2.926;2023-11-21T01:06:52;9.70;99.90
46319;DHT22;32042;50.916;2.926;2023-11-21T01:09:18;9.70;99.90
46319;DHT22;32042;50.916;2.926;2023-11-21T01:11:44;9.70;99.90
46319;DHT22;32042;50.916;2.926;2023-11-21T01:14:10;9.80;99.90
46319;DHT22;32042;50.916;2.926;2023-11-21T01:16:36;9.80;99.90
46319;DHT22;32042;50.916;2.926;2023-11-21T01:19:01;9.80;99.90
46319;DHT22;32042;50.916;2.926;2023-11-21T01:21:27;9.80;99.90
46319;DHT22;32042;50.916;2.926;2023-11-21T01:23:53;9.80;99.90
46319;DHT22;32042;50.916;2.926;2023-11-21T01:26:20;9.90;99.90
46319;DHT22;32042;50.916;2.926;2023-11-21T01:28:46;9.90;99.90
46319;DHT22;32042;50.916;2.926;2023-11-21T01:31:14;9.90;99.90
46319;DHT22;32042;50.916;2.926;2023-11-21T01:33:40;9.90;99.90
46319;DHT22;32042;50.916;2.926;2023-11-21T01:36:06;9.90;99.90
46319;DHT22;32042;50.916;2.926;2023-11-21T01:38:32;9.90;99.90
46319;DHT22;32042;50.916;2.926;2023-11-21T01:40:58;9.90;99.90
46319;DHT22;32042;50.916;2.926;2023-11-21T01:43:26;9.90;99.90
46319;DHT22;32042;50.916;2.926;2023-11-21T01:45:53;9.90;99.90
46319;DHT22;32042;50.916;2.926;2023-11-21T01:48:22;9.90;99.90
46319;DHT22;32042;50.916;2.926;2023-11-21T01:50:48;9.90;99.90
46319;DHT22;32042;50.916;2.926;2023-11-21T01:53:14;9.90;99.90
46319;DHT22;32042;50.916;2.926;2023-11-21T01:55:42;9.90;99.90
46319;DHT22;32042;50.916;2.926;2023-11-21T01:58:09;9.90;99.90
46319;DHT22;32042;50.916;2.926;2023-11-21T02:00:37;9.90;99.90
46319;DHT22;32042;50.916;2.926;2023-11-21T02:03:04;10.00;99.90
46319;DHT22;32042;50.916;2.926;2023-11-21T02:05:30;10.00;99.90
46319;DHT22;32042;50.916;2.926;2023-11-21T02:07:55;10.00;99.90
46319;DHT22;32042;50.916;2.926;2023-11-21T02:10:22;10.00;99.90
46319;DHT22;32042;50.916;2.926;2023-11-21T02:12:51;10.00;99.90
46319;DHT22;32042;50.916;2.926;2023-11-21T02:15:17;10.00;99.90
46319;DHT22;32042;50.916;2.926;2023-11-21T02:17:47;10.00;99.90
46319;DHT22;32042;50.916;2.926;2023-11-21T02:20:13;10.00;99.90
46319;DHT22;32042;50.916;2.926;2023-11-21T02:22:52;10.00;99.90
46319;DHT22;32042;50.916;2.926;2023-11-21T02:25:27;10.00;99.90
46319;DHT22;32042;50.916;2.926;2023-11-21T02:27:56;10.00;99.90
46319;DHT22;32042;50.916;2.926;2023-11-21T02:30:23;10.00;99.90
46319;DHT22;32042;50.916;2.926;2023-11-21T02:32:51;10.10;99.90
46319;DHT22;32042;50.916;2.926;2023-11-21T02:35:23;10.10;99.90
46319;DHT22;32042;50.916;2.926;2023-11-21T02:37:52;10.10;99.90
46319;DHT22;32042;50.916;2.926;2023-11-21T02:40:19;10.10;99.90
46319;DHT22;32042;50.916;2.926;2023-11-21T02:42:51;10.10;99.90
46319;DHT22;32042;50.916;2.926;2023-11-21T02:45:19;10.20;99.90
46319;DHT22;32042;50.916;2.926;2023-11-21T02:47:47;10.20;99.90
46319;DHT22;32042;50.916;2.926;2023-11-21T02:50:19;10.20;99.90
46319;DHT22;32042;50.916;2.926;2023-11-21T02:52:46;10.30;99.90
46319;DHT22;32042;50.916;2.926;2023-11-21T02:55:12;10.20;99.90
46319;DHT22;32042;50.916;2.926;2023-11-21T02:57:37;10.30;99.90
46319;DHT22;32042;50.916;2.926;2023-11-21T03:00:04;10.30;99.90
46319;DHT22;32042;50.916;2.926;2023-11-21T03:02:33;10.30;99.90
46319;DHT22;32042;50.916;2.926;2023-11-21T03:04:58;10.30;99.90
46319;DHT22;32042;50.916;2.926;2023-11-21T03:07:25;10.30;99.90
46319;DHT22;32042;50.916;2.926;2023-11-21T03:09:50;10.30;99.90
46319;DHT22;32042;50.916;2.926;2023-11-21T03:12:16;10.30;99.90
46319;DHT22;32042;50.916;2.926;2023-11-21T03:14:42;10.30;99.90
46319;DHT22;32042;50.916;2.926;2023-11-21T03:17:07;10.30;99.90
46319;DHT22;32042;50.916;2.926;2023-11-21T03:19:33;10.30;99.90
46319;DHT22;32042;50.916;2.926;2023-11-21T03:21:58;10.30;99.90
46319;DHT22;32042;50.916;2.926;2023-11-21T03:24:24;10.30;99.90
46319;DHT22;32042;50.916;2.926;2023-11-21T03:26:51;10.20;99.90
46319;DHT22;32042;50.916;2.926;2023-11-21T03:29:17;10.30;99.90
46319;DHT22;32042;50.916;2.926;2023-11-21T03:31:43;10.30;99.90
46319;DHT22;32042;50.916;2.926;2023-11-21T03:34:15;10.30;99.90
46319;DHT22;32042;50.916;2.926;2023-11-21T03:36:41;10.30;99.90
46319;DHT22;32042;50.916;2.926;2023-11-21T03:39:07;10.30;99.90
46319;DHT22;32042;50.916;2.926;2023-11-21T03:41:32;10.30;99.90
46319;DHT22;32042;50.916;2.926;2023-11-21T03:43:59;10.30;99.90
46319;DHT22;32042;50.916;2.926;2023-11-21T03:46:25;10.30;99.90
46319;DHT22;32042;50.916;2.926;2023-11-21T03:48:51;10.30;99.90
46319;DHT22;32042;50.916;2.926;2023-11-21T03:51:16;10.30;99.90
46319;DHT22;32042;50.916;2.926;2023-11-21T03:53:42;10.40;99.90
46319;DHT22;32042;50.916;2.926;2023-11-21T03:56:08;10.40;99.90
46319;DHT22;32042;50.916;2.926;2023-11-21T03:58:34;10.50;99.90
46319;DHT22;32042;50.916;2.926;2023-11-21T04:00:59;10.50;99.90
46319;DHT22;32042;50.916;2.926;2023-11-21T04:03:25;10.50;99.90
46319;DHT22;32042;50.916;2.926;2023-11-21T04:05:51;10.60;99.90
46319;DHT22;32042;50.916;2.926;2023-11-21T04:08:16;10.60;99.90
46319;DHT22;32042;50.916;2.926;2023-11-21T04:10:42;10.60;99.90
46319;DHT22;32042;50.916;2.926;2023-11-21T04:13:08;10.60;99.90
46319;DHT22;32042;50.916;2.926;2023-11-21T04:15:33;10.70;99.90
46319;DHT22;32042;50.916;2.926;2023-11-21T04:17:59;10.70;99.90
46319;DHT22;32042;50.916;2.926;2023-11-21T04:20:25;10.70;99.90
46319;DHT22;32042;50.916;2.926;2023-11-21T04:22:50;10.80;99.90
46319;DHT22;32042;50.916;2.926;2023-11-21T04:25:16;10.80;99.90
46319;DHT22;32042;50.916;2.926;2023-11-21T04:27:44;10.80;99.90
46319;DHT22;32042;50.916;2.926;2023-11-21T04:30:11;10.80;99.90
46319;DHT22;32042;50.916;2.926;2023-11-21T04:32:37;10.90;99.90
46319;DHT22;32042;50.916;2.926;2023-11-21T04:35:03;10.90;99.90
46319;DHT22;32042;50.916;2.926;2023-11-21T04:37:29;11.00;99.90
46319;DHT22;32042;50.916;2.926;2023-11-21T04:39:55;11.00;99.90
46319;DHT22;32042;50.916;2.926;2023-11-21T04:42:21;11.00;99.90
46319;DHT22;32042;50.916;2.926;2023-11-21T04:44:47;11.00;99.90
46319;DHT22;32042;50.916;2.926;2023-11-21T04:47:13;11.00;99.90
46319;DHT22;32042;50.916;2.926;2023-11-21T04:49:42;11.10;99.90
46319;DHT22;32042;50.916;2.926;2023-11-21T04:52:09;11.10;99.90
46319;DHT22;32042;50.916;2.926;2023-11-21T04:54:35;11.10;99.90
46319;DHT22;32042;50.916;2.926;2023-11-21T04:57:01;11.10;99.90
46319;DHT22;32042;50.916;2.926;2023-11-21T04:59:27;11.10;99.90
46319;DHT22;32042;50.916;2.926;2023-11-21T05:01:53;11.10;99.90
46319;DHT22;32042;50.916;2.926;2023-11-21T05:04:19;11.10;99.90
46319;DHT22;32042;50.916;2.926;2023-11-21T05:06:46;11.10;99.90
46319;DHT22;32042;50.916;2.926;2023-11-21T05:09:13;11.10;99.90
46319;DHT22;32042;50.916;2.926;2023-11-21T05:11:38;11.10;99.90
46319;DHT22;32042;50.916;2.926;2023-11-21T05:14:06;11.10;99.90
46319;DHT22;32042;50.916;2.926;2023-11-21T05:16:32;11.10;99.90
46319;DHT22;32042;50.916;2.926;2023-11-21T05:18:59;11.10;99.90
46319;DHT22;32042;50.916;2.926;2023-11-21T05:21:27;11.10;99.90
46319;DHT22;32042;50.916;2.926;2023-11-21T05:23:53;11.10;99.90
46319;DHT22;32042;50.916;2.926;2023-11-21T05:26:18;11.10;99.90
46319;DHT22;32042;50.916;2.926;2023-11-21T05:28:44;11.00;99.90
46319;DHT22;32042;50.916;2.926;2023-11-21T05:31:10;11.10;99.90
46319;DHT22;32042;50.916;2.926;2023-11-21T05:33:36;11.00;99.90
46319;DHT22;32042;50.916;2.926;2023-11-21T05:36:02;11.00;99.90
46319;DHT22;32042;50.916;2.926;2023-11-21T05:38:28;11.00;99.90
46319;DHT22;32042;50.916;2.926;2023-11-21T05:40:53;11.00;99.90
46319;DHT22;32042;50.916;2.926;2023-11-21T05:43:19;11.00;99.90
46319;DHT22;32042;50.916;2.926;2023-11-21T05:45:45;11.00;99.90
46319;DHT22;32042;50.916;2.926;2023-11-21T05:48:11;11.00;99.90
46319;DHT22;32042;50.916;2.926;2023-11-21T05:50:37;11.00;99.90
46319;DHT22;32042;50.916;2.926;2023-11-21T05:53:03;10.90;99.90
46319;DHT22;32042;50.916;2.926;2023-11-21T05:55:29;10.90;99.90
46319;DHT22;32042;50.916;2.926;2023-11-21T05:57:55;10.90;99.90
46319;DHT22;32042;50.916;2.926;2023-11-21T06:00:21;10.90;99.90
46319;DHT22;32042;50.916;2.926;2023-11-21T06:02:52;10.90;99.90
46319;DHT22;32042;50.916;2.926;2023-11-21T06:05:22;10.90;99.90
46319;DHT22;32042;50.916;2.926;2023-11-21T06:07:50;10.90;99.90
46319;DHT22;32042;50.916;2.926;2023-11-21T06:10:15;10.90;99.90
46319;DHT22;32042;50.916;2.926;2023-11-21T06:12:43;10.90;99.90
46319;DHT22;32042;50.916;2.926;2023-11-21T06:15:10;10.90;99.90
46319;DHT22;32042;50.916;2.926;2023-11-21T06:17:39;10.90;99.90
46319;DHT22;32042;50.916;2.926;2023-11-21T06:20:07;10.90;99.90
46319;DHT22;32042;50.916;2.926;2023-11-21T06:22:40;10.90;99.90
46319;DHT22;32042;50.916;2.926;2023-11-21T06:25:07;10.90;99.90
46319;DHT22;32042;50.916;2.926;2023-11-21T06:27:42;10.90;99.90
46319;DHT22;32042;50.916;2.926;2023-11-21T06:30:08;10.90;99.90
46319;DHT22;32042;50.916;2.926;2023-11-21T06:32:38;10.90;99.90
46319;DHT22;32042;50.916;2.926;2023-11-21T06:35:05;10.90;99.90
46319;DHT22;32042;50.916;2.926;2023-11-21T06:37:32;10.90;99.90
46319;DHT22;32042;50.916;2.926;2023-11-21T06:39:59;10.90;99.90
46319;DHT22;32042;50.916;2.926;2023-11-21T06:42:25;10.90;99.90
46319;DHT22;32042;50.916;2.926;2023-11-21T06:44:52;10.90;99.90
46319;DHT22;32042;50.916;2.926;2023-11-21T06:47:19;11.00;99.90
46319;DHT22;32042;50.916;2.926;2023-11-21T06:49:47;11.00;99.90
46319;DHT22;32042;50.916;2.926;2023-11-21T06:52:16;11.00;99.90
46319;DHT22;32042;50.916;2.926;2023-11-21T06:54:42;11.00;99.90
46319;DHT22;32042;50.916;2.926;2023-11-21T06:57:08;10.90;99.90
46319;DHT22;32042;50.916;2.926;2023-11-21T06:59:33;11.00;99.90
46319;DHT22;32042;50.916;2.926;2023-11-21T07:01:59;10.90;99.90
46319;DHT22;32042;50.916;2.926;2023-11-21T07:04:25;10.80;99.90
46319;DHT22;32042;50.916;2.926;2023-11-21T07:06:54;10.80;99.90
46319;DHT22;32042;50.916;2.926;2023-11-21T07:09:20;10.80;99.90
46319;DHT22;32042;50.916;2.926;2023-11-21T07:11:48;10.70;99.90
46319;DHT22;32042;50.916;2.926;2023-11-21T07:14:17;10.70;99.90
46319;DHT22;32042;50.916;2.926;2023-11-21T07:16:45;10.70;99.90
46319;DHT22;32042;50.916;2.926;2023-11-21T07:19:11;10.70;99.90
46319;DHT22;32042;50.916;2.926;2023-11-21T07:21:38;10.70;99.90
46319;DHT22;32042;50.916;2.926;2023-11-21T07:24:05;10.80;99.90
46319;DHT22;32042;50.916;2.926;2023-11-21T07:26:35;10.80;99.90
46319;DHT22;32042;50.916;2.926;2023-11-21T07:29:01;10.80;99.90
46319;DHT22;32042;50.916;2.926;2023-11-21T07:31:28;10.80;99.90
46319;DHT22;32042;50.916;2.926;2023-11-21T07:33:54;10.80;99.90
46319;DHT22;32042;50.916;2.926;2023-11-21T07:36:23;10.80;99.90
46319;DHT22;32042;50.916;2.926;2023-11-21T07:38:49;10.80;99.90
46319;DHT22;32042;50.916;2.926;2023-11-21T07:41:15;10.80;99.90
46319;DHT22;32042;50.916;2.926;2023-11-21T07:43:42;10.80;99.90
46319;DHT22;32042;50.916;2.926;2023-11-21T07:46:08;10.80;99.90
46319;DHT22;32042;50.916;2.926;2023-11-21T07:48:34;10.80;99.90
46319;DHT22;32042;50.916;2.926;2023-11-21T07:51:01;10.80;99.90
46319;DHT22;32042;50.916;2.926;2023-11-21T07:53:27;10.80;99.90
46319;DHT22;32042;50.916;2.926;2023-11-21T07:55:57;10.80;99.90
46319;DHT22;32042;50.916;2.926;2023-11-21T07:58:22;10.80;99.90
46319;DHT22;32042;50.916;2.926;2023-11-21T08:00:49;10.80;99.90
46319;DHT22;32042;50.916;2.926;2023-11-21T08:03:15;10.80;99.90
46319;DHT22;32042;50.916;2.926;2023-11-21T08:05:42;10.80;99.90
46319;DHT22;32042;50.916;2.926;2023-11-21T08:08:07;10.80;99.90
46319;DHT22;32042;50.916;2.926;2023-11-21T08:10:33;10.80;99.90
46319;DHT22;32042;50.916;2.926;2023-11-21T08:12:59;10.80;99.90
46319;DHT22;32042;50.916;2.926;2023-11-21T08:15:25;10.80;99.90
46319;DHT22;32042;50.916;2.926;2023-11-21T08:17:50;10.80;99.90
46319;DHT22;32042;50.916;2.926;2023-11-21T08:20:16;10.80;99.90
46319;DHT22;32042;50.916;2.926;2023-11-21T08:22:44;10.80;99.90
46319;DHT22;32042;50.916;2.926;2023-11-21T08:25:11;10.80;99.90
46319;DHT22;32042;50.916;2.926;2023-11-21T08:27:36;10.80;99.90
46319;DHT22;32042;50.916;2.926;2023-11-21T08:30:03;10.80;99.90
46319;DHT22;32042;50.916;2.926;2023-11-21T08:32:29;10.80;99.90
46319;DHT22;32042;50.916;2.926;2023-11-21T08:34:58;10.90;99.90
46319;DHT22;32042;50.916;2.926;2023-11-21T08:37:23;10.90;99.90
46319;DHT22;32042;50.916;2.926;2023-11-21T08:39:49;10.90;99.90
46319;DHT22;32042;50.916;2.926;2023-11-21T08:42:15;10.90;99.90
46319;DHT22;32042;50.916;2.926;2023-11-21T08:44:41;10.90;99.90
46319;DHT22;32042;50.916;2.926;2023-11-21T08:47:07;10.90;99.90
46319;DHT22;32042;50.916;2.926;2023-11-21T08:49:33;11.00;99.90
46319;DHT22;32042;50.916;2.926;2023-11-21T08:51:59;11.00;99.90
46319;DHT22;32042;50.916;2.926;2023-11-21T08:54:25;11.00;99.90
46319;DHT22;32042;50.916;2.926;2023-11-21T08:56:53;11.00;99.90
46319;DHT22;32042;50.916;2.926;2023-11-21T08:59:19;11.10;99.90
46319;DHT22;32042;50.916;2.926;2023-11-21T09:01:46;11.20;99.90
46319;DHT22;32042;50.916;2.926;2023-11-21T09:04:13;11.20;99.90
46319;DHT22;32042;50.916;2.926;2023-11-21T09:06:39;11.30;99.90
46319;DHT22;32042;50.916;2.926;2023-11-21T09:09:06;11.30;99.90
46319;DHT22;32042;50.916;2.926;2023-11-21T09:11:34;11.30;99.90
46319;DHT22;32042;50.916;2.926;2023-11-21T09:14:01;11.30;99.90
46319;DHT22;32042;50.916;2.926;2023-11-21T09:16:28;11.30;99.90
46319;DHT22;32042;50.916;2.926;2023-11-21T09:18:54;11.40;99.90
46319;DHT22;32042;50.916;2.926;2023-11-21T09:21:20;11.50;99.90
46319;DHT22;32042;50.916;2.926;2023-11-21T09:23:46;11.60;99.90
46319;DHT22;32042;50.916;2.926;2023-11-21T09:26:12;11.70;99.90
46319;DHT22;32042;50.916;2.926;2023-11-21T09:28:37;11.80;99.90
46319;DHT22;32042;50.916;2.926;2023-11-21T09:31:05;11.90;99.90
46319;DHT22;32042;50.916;2.926;2023-11-21T09:33:32;12.10;99.90
46319;DHT22;32042;50.916;2.926;2023-11-21T09:35:59;12.20;99.90
46319;DHT22;32042;50.916;2.926;2023-11-21T09:38:25;12.30;99.90
46319;DHT22;32042;50.916;2.926;2023-11-21T09:40:51;12.30;99.90
46319;DHT22;32042;50.916;2.926;2023-11-21T09:43:20;12.40;99.90
46319;DHT22;32042;50.916;2.926;2023-11-21T09:45:47;12.40;99.90
46319;DHT22;32042;50.916;2.926;2023-11-21T09:48:17;12.40;99.90
46319;DHT22;32042;50.916;2.926;2023-11-21T09:50:43;12.30;99.90
46319;DHT22;32042;50.916;2.926;2023-11-21T09:53:16;12.30;99.90
46319;DHT22;32042;50.916;2.926;2023-11-21T09:55:45;12.30;99.90
46319;DHT22;32042;50.916;2.926;2023-11-21T09:58:13;12.30;99.90
46319;DHT22;32042;50.916;2.926;2023-11-21T10:00:46;12.20;99.90
46319;DHT22;32042;50.916;2.926;2023-11-21T10:03:12;12.20;99.90
46319;DHT22;32042;50.916;2.926;2023-11-21T10:05:39;12.20;99.90
46319;DHT22;32042;50.916;2.926;2023-11-21T10:08:10;12.20;99.90
46319;DHT22;32042;50.916;2.926;2023-11-21T10:10:37;12.20;99.90
46319;DHT22;32042;50.916;2.926;2023-11-21T10:13:05;12.20;99.90
46319;DHT22;32042;50.916;2.926;2023-11-21T10:15:34;12.20;99.90
46319;DHT22;32042;50.916;2.926;2023-11-21T10:18:03;12.20;99.90
46319;DHT22;32042;50.916;2.926;2023-11-21T10:20:30;12.30;99.90
46319;DHT22;32042;50.916;2.926;2023-11-21T10:22:56;12.30;99.90
46319;DHT22;32042;50.916;2.926;2023-11-21T10:25:22;12.30;99.90
46319;DHT22;32042;50.916;2.926;2023-11-21T10:27:49;12.30;99.90
46319;DHT22;32042;50.916;2.926;2023-11-21T10:30:18;12.30;99.90
46319;DHT22;32042;50.916;2.926;2023-11-21T10:32:44;12.40;99.90
46319;DHT22;32042;50.916;2.926;2023-11-21T10:35:10;12.30;99.90
46319;DHT22;32042;50.916;2.926;2023-11-21T10:37:39;12.30;99.90
46319;DHT22;32042;50.916;2.926;2023-11-21T10:40:09;12.30;99.90
46319;DHT22;32042;50.916;2.926;2023-11-21T10:42:41;12.30;99.90
46319;DHT22;32042;50.916;2.926;2023-11-21T10:45:10;12.20;99.90
46319;DHT22;32042;50.916;2.926;2023-11-21T10:47:43;12.10;99.90
46319;DHT22;32042;50.916;2.926;2023-11-21T10:50:09;12.00;99.90
46319;DHT22;32042;50.916;2.926;2023-11-21T10:52:37;12.00;99.90
46319;DHT22;32042;50.916;2.926;2023-11-21T10:55:25;11.90;99.90
46319;DHT22;32042;50.916;2.926;2023-11-21T10:57:53;11.90;99.90
46319;DHT22;32042;50.916;2.926;2023-11-21T11:00:20;11.90;99.90
46319;DHT22;32042;50.916;2.926;2023-11-21T11:02:52;11.90;99.90
46319;DHT22;32042;50.916;2.926;2023-11-21T11:05:20;11.90;99.90
46319;DHT22;32042;50.916;2.926;2023-11-21T11:08:12;11.90;99.90
